sensor_id;sensor_type;location;lat;lon;timestamp;pressure;altitude;pressure_sealevel;temperature;humidity
11440;BME280;5776;51.814;4.510;2023-07-02T00:02:22;100799.22;;;17.96;100.00
11440;BME280;5776;51.814;4.510;2023-07-02T00:04:48;100796.69;;;17.90;100.00
11440;BME280;5776;51.814;4.510;2023-07-02T00:07:14;100795.00;;;17.77;100.00
11440;BME280;5776;51.814;4.510;2023-07-02T00:09:43;100791.47;;;17.77;99.01
11440;BME280;5776;51.814;4.510;2023-07-02T00:12:09;100799.44;;;17.69;97.09
11440;BME280;5776;51.814;4.510;2023-07-02T00:14:39;100802.66;;;17.71;97.05
11440;BME280;5776;51.814;4.510;2023-07-02T00:17:04;100803.78;;;17.70;96.94
11440;BME280;5776;51.814;4.510;2023-07-02T00:19:31;100796.22;;;17.67;96.49
11440;BME280;5776;51.814;4.510;2023-07-02T00:21:56;100806.41;;;17.67;95.77
11440;BME280;5776;51.814;4.510;2023-07-02T00:24:24;100796.59;;;17.66;95.98
11440;BME280;5776;51.814;4.510;2023-07-02T00:26:49;100800.81;;;17.63;95.97
11440;BME280;5776;51.814;4.510;2023-07-02T00:29:15;100802.72;;;17.63;95.70
11440;BME280;5776;51.814;4.510;2023-07-02T00:31:41;100805.03;;;17.61;96.12
11440;BME280;5776;51.814;4.510;2023-07-02T00:34:07;100809.25;;;17.58;94.97
11440;BME280;5776;51.814;4.510;2023-07-02T00:36:34;100810.53;;;17.61;98.78
11440;BME280;5776;51.814;4.510;2023-07-02T00:39:00;100809.38;;;17.62;99.88
11440;BME280;5776;51.814;4.510;2023-07-02T00:41:26;100813.72;;;17.63;100.00
11440;BME280;5776;51.814;4.510;2023-07-02T00:43:52;100808.56;;;17.61;100.00
11440;BME280;5776;51.814;4.510;2023-07-02T00:46:22;100808.44;;;17.58;99.39
11440;BME280;5776;51.814;4.510;2023-07-02T00:48:52;100810.38;;;17.57;99.96
11440;BME280;5776;51.814;4.510;2023-07-02T00:51:20;100806.72;;;17.53;98.74
11440;BME280;5776;51.814;4.510;2023-07-02T00:53:49;100814.13;;;17.53;99.15
11440;BME280;5776;51.814;4.510;2023-07-02T00:56:15;100810.56;;;17.52;99.81
11440;BME280;5776;51.814;4.510;2023-07-02T00:58:45;100812.84;;;17.50;100.00
11440;BME280;5776;51.814;4.510;2023-07-02T01:01:21;100820.28;;;17.49;100.00
11440;BME280;5776;51.814;4.510;2023-07-02T01:04:00;100819.81;;;17.47;100.00
11440;BME280;5776;51.814;4.510;2023-07-02T01:06:36;100823.22;;;17.44;98.87
11440;BME280;5776;51.814;4.510;2023-07-02T01:09:06;100831.00;;;17.42;98.85
11440;BME280;5776;51.814;4.510;2023-07-02T01:11:40;100827.47;;;17.42;99.41
11440;BME280;5776;51.814;4.510;2023-07-02T01:14:16;100826.38;;;17.34;95.91
11440;BME280;5776;51.814;4.510;2023-07-02T01:16:43;100825.44;;;17.30;94.52
11440;BME280;5776;51.814;4.510;2023-07-02T01:19:59;100825.19;;;17.23;93.77
11440;BME280;5776;51.814;4.510;2023-07-02T01:22:01;100831.13;;;17.25;94.84
11440;BME280;5776;51.814;4.510;2023-07-02T01:24:27;100827.94;;;17.23;92.77
11440;BME280;5776;51.814;4.510;2023-07-02T01:26:55;100831.47;;;17.23;91.20
11440;BME280;5776;51.814;4.510;2023-07-02T01:29:22;100837.47;;;17.17;89.86
11440;BME280;5776;51.814;4.510;2023-07-02T01:31:48;100832.78;;;17.17;89.03
11440;BME280;5776;51.814;4.510;2023-07-02T01:34:14;100826.31;;;17.22;92.09
11440;BME280;5776;51.814;4.510;2023-07-02T01:36:40;100837.59;;;17.20;91.24
11440;BME280;5776;51.814;4.510;2023-07-02T01:39:06;100828.25;;;17.21;93.23
11440;BME280;5776;51.814;4.510;2023-07-02T01:41:49;100829.72;;;17.19;89.87
11440;BME280;5776;51.814;4.510;2023-07-02T01:44:16;100829.03;;;17.22;92.64
11440;BME280;5776;51.814;4.510;2023-07-02T01:46:42;100830.19;;;17.21;92.07
11440;BME280;5776;51.814;4.510;2023-07-02T01:49:08;100831.13;;;17.25;95.98
11440;BME280;5776;51.814;4.510;2023-07-02T01:51:35;100833.41;;;17.23;95.76
11440;BME280;5776;51.814;4.510;2023-07-02T01:54:01;100829.03;;;17.22;96.79
11440;BME280;5776;51.814;4.510;2023-07-02T01:56:27;100823.88;;;17.20;96.09
11440;BME280;5776;51.814;4.510;2023-07-02T01:58:54;100831.66;;;17.18;95.05
11440;BME280;5776;51.814;4.510;2023-07-02T02:01:20;100822.59;;;17.18;94.76
11440;BME280;5776;51.814;4.510;2023-07-02T02:03:46;100832.31;;;17.15;92.33
11440;BME280;5776;51.814;4.510;2023-07-02T02:06:12;100838.47;;;17.12;91.30
11440;BME280;5776;51.814;4.510;2023-07-02T02:08:38;100834.13;;;17.11;93.20
11440;BME280;5776;51.814;4.510;2023-07-02T02:11:04;100840.41;;;17.12;92.76
11440;BME280;5776;51.814;4.510;2023-07-02T02:13:30;100827.38;;;17.09;92.54
11440;BME280;5776;51.814;4.510;2023-07-02T02:15:55;100834.13;;;17.11;94.28
11440;BME280;5776;51.814;4.510;2023-07-02T02:18:21;100844.16;;;17.07;91.63
11440;BME280;5776;51.814;4.510;2023-07-02T02:20:47;100853.66;;;17.10;94.30
11440;BME280;5776;51.814;4.510;2023-07-02T02:23:13;100852.06;;;17.09;93.54
11440;BME280;5776;51.814;4.510;2023-07-02T02:25:39;100850.44;;;17.08;94.61
11440;BME280;5776;51.814;4.510;2023-07-02T02:28:05;100855.13;;;17.07;94.36
11440;BME280;5776;51.814;4.510;2023-07-02T02:30:31;100855.00;;;17.03;93.44
11440;BME280;5776;51.814;4.510;2023-07-02T02:32:59;100861.94;;;17.01;94.36
11440;BME280;5776;51.814;4.510;2023-07-02T02:35:26;100863.88;;;17.00;94.38
11440;BME280;5776;51.814;4.510;2023-07-02T02:37:52;100870.00;;;16.97;92.84
11440;BME280;5776;51.814;4.510;2023-07-02T02:40:18;100863.25;;;16.95;92.11
11440;BME280;5776;51.814;4.510;2023-07-02T02:42:44;100864.06;;;16.95;94.00
11440;BME280;5776;51.814;4.510;2023-07-02T02:45:10;100868.59;;;16.91;91.41
11440;BME280;5776;51.814;4.510;2023-07-02T02:47:36;100872.47;;;16.90;91.22
11440;BME280;5776;51.814;4.510;2023-07-02T02:50:02;100864.91;;;16.87;91.84
11440;BME280;5776;51.814;4.510;2023-07-02T02:52:28;100873.13;;;16.87;92.15
11440;BME280;5776;51.814;4.510;2023-07-02T02:54:53;100871.53;;;16.86;93.47
11440;BME280;5776;51.814;4.510;2023-07-02T02:57:19;100875.56;;;16.89;94.45
11440;BME280;5776;51.814;4.510;2023-07-02T02:59:45;100873.94;;;16.88;94.79
11440;BME280;5776;51.814;4.510;2023-07-02T03:02:12;100879.41;;;16.88;95.44
11440;BME280;5776;51.814;4.510;2023-07-02T03:04:37;100877.34;;;16.84;94.58
11440;BME280;5776;51.814;4.510;2023-07-02T03:07:07;100879.59;;;16.82;94.00
11440;BME280;5776;51.814;4.510;2023-07-02T03:09:35;100878.31;;;16.80;93.32
11440;BME280;5776;51.814;4.510;2023-07-02T03:12:01;100878.31;;;16.80;93.95
11440;BME280;5776;51.814;4.510;2023-07-02T03:14:27;100878.31;;;16.80;94.38
11440;BME280;5776;51.814;4.510;2023-07-02T03:16:53;100878.16;;;16.76;95.06
11440;BME280;5776;51.814;4.510;2023-07-02T03:19:20;100878.03;;;16.73;93.58
11440;BME280;5776;51.814;4.510;2023-07-02T03:21:46;100876.41;;;16.72;94.12
11440;BME280;5776;51.814;4.510;2023-07-02T03:24:12;100886.41;;;16.68;93.54
11440;BME280;5776;51.814;4.510;2023-07-02T03:26:39;100881.41;;;16.70;94.36
11440;BME280;5776;51.814;4.510;2023-07-02T03:29:06;100882.06;;;16.67;94.43
11440;BME280;5776;51.814;4.510;2023-07-02T03:31:32;100885.59;;;16.67;95.30
11440;BME280;5776;51.814;4.510;2023-07-02T03:34:01;100889.47;;;16.66;95.67
11440;BME280;5776;51.814;4.510;2023-07-02T03:36:29;100888.69;;;16.66;96.56
11440;BME280;5776;51.814;4.510;2023-07-02T03:38:54;100888.19;;;16.63;95.38
11440;BME280;5776;51.814;4.510;2023-07-02T03:41:20;100882.25;;;16.61;95.71
11440;BME280;5776;51.814;4.510;2023-07-02T03:43:46;100882.91;;;16.58;95.19
11440;BME280;5776;51.814;4.510;2023-07-02T03:46:13;100888.03;;;16.60;95.28
11440;BME280;5776;51.814;4.510;2023-07-02T03:48:39;100890.16;;;16.54;95.01
11440;BME280;5776;51.814;4.510;2023-07-02T03:51:06;100885.81;;;16.53;94.28
11440;BME280;5776;51.814;4.510;2023-07-02T03:53:32;100902.25;;;16.53;96.42
11440;BME280;5776;51.814;4.510;2023-07-02T03:55:57;100901.91;;;16.55;96.78
11440;BME280;5776;51.814;4.510;2023-07-02T03:58:23;100908.25;;;16.55;97.37
11440;BME280;5776;51.814;4.510;2023-07-02T04:00:49;100904.53;;;16.51;97.17
11440;BME280;5776;51.814;4.510;2023-07-02T04:03:16;100903.72;;;16.51;97.10
11440;BME280;5776;51.814;4.510;2023-07-02T04:05:42;100914.22;;;16.49;97.97
11440;BME280;5776;51.814;4.510;2023-07-02T04:08:09;100911.78;;;16.47;97.97
11440;BME280;5776;51.814;4.510;2023-07-02T04:10:36;100907.75;;;16.45;97.65
11440;BME280;5776;51.814;4.510;2023-07-02T04:13:02;100919.88;;;16.44;97.97
11440;BME280;5776;51.814;4.510;2023-07-02T04:15:28;100922.91;;;16.42;97.14
11440;BME280;5776;51.814;4.510;2023-07-02T04:17:54;100926.31;;;16.39;97.29
11440;BME280;5776;51.814;4.510;2023-07-02T04:20:20;100926.81;;;16.41;98.03
11440;BME280;5776;51.814;4.510;2023-07-02T04:22:46;100923.25;;;16.40;97.46
11440;BME280;5776;51.814;4.510;2023-07-02T04:25:13;100929.84;;;16.39;98.08
11440;BME280;5776;51.814;4.510;2023-07-02T04:27:44;100925.81;;;16.37;97.04
11440;BME280;5776;51.814;4.510;2023-07-02T04:30:11;100929.72;;;16.36;98.00
11440;BME280;5776;51.814;4.510;2023-07-02T04:32:38;100933.56;;;16.35;98.10
11440;BME280;5776;51.814;4.510;2023-07-02T04:35:08;100931.66;;;16.35;98.00
11440;BME280;5776;51.814;4.510;2023-07-02T04:37:35;100939.88;;;16.35;97.84
11440;BME280;5776;51.814;4.510;2023-07-02T04:40:01;100938.25;;;16.34;97.98
11440;BME280;5776;51.814;4.510;2023-07-02T04:42:28;100947.91;;;16.32;97.31
11440;BME280;5776;51.814;4.510;2023-07-02T04:44:56;100944.69;;;16.30;97.80
11440;BME280;5776;51.814;4.510;2023-07-02T04:47:22;100943.09;;;16.29;97.57
11440;BME280;5776;51.814;4.510;2023-07-02T04:49:48;100951.00;;;16.30;97.82
11440;BME280;5776;51.814;4.510;2023-07-02T04:52:13;100954.53;;;16.31;97.91
11440;BME280;5776;51.814;4.510;2023-07-02T04:54:39;100960.03;;;16.31;97.71
11440;BME280;5776;51.814;4.510;2023-07-02T04:57:05;100966.63;;;16.30;97.39
11440;BME280;5776;51.814;4.510;2023-07-02T04:59:31;100952.91;;;16.30;97.08
11440;BME280;5776;51.814;4.510;2023-07-02T05:01:57;100965.81;;;16.29;97.81
11440;BME280;5776;51.814;4.510;2023-07-02T05:04:23;100955.19;;;16.28;97.30
11440;BME280;5776;51.814;4.510;2023-07-02T05:06:49;100956.31;;;16.27;96.65
11440;BME280;5776;51.814;4.510;2023-07-02T05:09:15;100959.53;;;16.29;97.54
11440;BME280;5776;51.814;4.510;2023-07-02T05:11:41;100959.22;;;16.30;97.68
11440;BME280;5776;51.814;4.510;2023-07-02T05:14:07;100963.56;;;16.31;97.02
11440;BME280;5776;51.814;4.510;2023-07-02T05:16:33;100966.97;;;16.28;97.01
11440;BME280;5776;51.814;4.510;2023-07-02T05:18:58;100966.31;;;16.31;97.65
11440;BME280;5776;51.814;4.510;2023-07-02T05:21:24;100962.44;;;16.32;97.66
11440;BME280;5776;51.814;4.510;2023-07-02T05:23:50;100970.03;;;16.35;97.39
11440;BME280;5776;51.814;4.510;2023-07-02T05:26:16;100971.31;;;16.38;96.63
11440;BME280;5776;51.814;4.510;2023-07-02T05:28:42;100971.31;;;16.38;96.66
11440;BME280;5776;51.814;4.510;2023-07-02T05:31:10;100975.34;;;16.40;96.78
11440;BME280;5776;51.814;4.510;2023-07-02T05:33:36;100979.38;;;16.43;97.59
11440;BME280;5776;51.814;4.510;2023-07-02T05:36:03;100979.84;;;16.36;95.61
11440;BME280;5776;51.814;4.510;2023-07-02T05:38:29;100983.22;;;16.42;96.35
11440;BME280;5776;51.814;4.510;2023-07-02T05:40:55;100987.91;;;16.41;95.93
11440;BME280;5776;51.814;4.510;2023-07-02T05:43:21;100983.56;;;16.40;95.56
11440;BME280;5776;51.814;4.510;2023-07-02T05:45:50;100992.59;;;16.41;95.96
11440;BME280;5776;51.814;4.510;2023-07-02T05:48:17;100995.16;;;16.46;96.17
11440;BME280;5776;51.814;4.510;2023-07-02T05:50:43;100989.38;;;16.48;96.41
11440;BME280;5776;51.814;4.510;2023-07-02T05:53:09;100994.66;;;16.44;95.25
11440;BME280;5776;51.814;4.510;2023-07-02T05:55:37;100993.53;;;16.45;95.27
11440;BME280;5776;51.814;4.510;2023-07-02T05:58:02;101003.06;;;16.48;95.46
11440;BME280;5776;51.814;4.510;2023-07-02T06:00:29;101000.78;;;16.50;94.77
11440;BME280;5776;51.814;4.510;2023-07-02T06:02:55;101008.69;;;16.51;94.56
11440;BME280;5776;51.814;4.510;2023-07-02T06:05:21;101002.06;;;16.52;94.11
11440;BME280;5776;51.814;4.510;2023-07-02T06:07:46;101003.06;;;16.56;95.50
11440;BME280;5776;51.814;4.510;2023-07-02T06:10:12;101011.28;;;16.56;95.10
11440;BME280;5776;51.814;4.510;2023-07-02T06:12:38;101005.78;;;16.56;94.07
11440;BME280;5776;51.814;4.510;2023-07-02T06:15:04;101014.50;;;16.58;94.38
11440;BME280;5776;51.814;4.510;2023-07-02T06:17:30;101021.09;;;16.57;92.61
11440;BME280;5776;51.814;4.510;2023-07-02T06:19:57;101024.66;;;16.58;93.21
11440;BME280;5776;51.814;4.510;2023-07-02T06:22:23;101021.59;;;16.59;93.20
11440;BME280;5776;51.814;4.510;2023-07-02T06:24:49;101020.78;;;16.59;92.41
11440;BME280;5776;51.814;4.510;2023-07-02T06:27:15;101028.69;;;16.60;93.25
11440;BME280;5776;51.814;4.510;2023-07-02T06:29:41;101031.91;;;16.62;92.88
11440;BME280;5776;51.814;4.510;2023-07-02T06:32:07;101033.84;;;16.62;92.93
11440;BME280;5776;51.814;4.510;2023-07-02T06:34:33;101030.44;;;16.65;93.30
11440;BME280;5776;51.814;4.510;2023-07-02T06:36:59;101034.81;;;16.66;91.80
11440;BME280;5776;51.814;4.510;2023-07-02T06:39:24;101028.19;;;16.67;92.86
11440;BME280;5776;51.814;4.510;2023-07-02T06:41:50;101039.97;;;16.68;91.88
11440;BME280;5776;51.814;4.510;2023-07-02T06:44:16;101043.53;;;16.68;92.69
11440;BME280;5776;51.814;4.510;2023-07-02T06:46:45;101036.09;;;16.69;92.21
11440;BME280;5776;51.814;4.510;2023-07-02T06:49:11;101041.59;;;16.69;91.87
11440;BME280;5776;51.814;4.510;2023-07-02T06:51:37;101045.94;;;16.70;91.92
11440;BME280;5776;51.814;4.510;2023-07-02T06:54:03;101040.78;;;16.68;91.44
11440;BME280;5776;51.814;4.510;2023-07-02T06:56:29;101051.75;;;16.68;91.40
11440;BME280;5776;51.814;4.510;2023-07-02T06:58:56;101056.09;;;16.69;91.34
11440;BME280;5776;51.814;4.510;2023-07-02T07:01:22;101053.34;;;16.69;90.63
11440;BME280;5776;51.814;4.510;2023-07-02T07:03:48;101057.69;;;16.70;90.57
11440;BME280;5776;51.814;4.510;2023-07-02T07:06:14;101063.66;;;16.72;90.38
11440;BME280;5776;51.814;4.510;2023-07-02T07:08:40;101060.63;;;16.74;90.84
11440;BME280;5776;51.814;4.510;2023-07-02T07:11:06;101063.84;;;16.76;91.10
11440;BME280;5776;51.814;4.510;2023-07-02T07:13:32;101065.44;;;16.77;90.43
11440;BME280;5776;51.814;4.510;2023-07-02T07:15:58;101072.59;;;16.78;90.71
11440;BME280;5776;51.814;4.510;2023-07-02T07:18:24;101072.59;;;16.78;89.59
11440;BME280;5776;51.814;4.510;2023-07-02T07:20:50;101068.06;;;16.82;90.01
11440;BME280;5776;51.814;4.510;2023-07-02T07:23:16;101082.25;;;16.84;90.26
11440;BME280;5776;51.814;4.510;2023-07-02T07:25:43;101078.38;;;16.85;90.68
11440;BME280;5776;51.814;4.510;2023-07-02T07:28:09;101082.41;;;16.88;90.94
11440;BME280;5776;51.814;4.510;2023-07-02T07:30:42;101080.31;;;16.84;88.69
11440;BME280;5776;51.814;4.510;2023-07-02T07:33:08;101073.84;;;16.89;90.06
11440;BME280;5776;51.814;4.510;2023-07-02T07:35:34;101084.16;;;16.92;89.89
11440;BME280;5776;51.814;4.510;2023-07-02T07:37:59;101089.50;;;16.97;90.08
11440;BME280;5776;51.814;4.510;2023-07-02T07:40:25;101085.94;;;16.97;90.01
11440;BME280;5776;51.814;4.510;2023-07-02T07:42:51;101087.56;;;16.98;89.50
11440;BME280;5776;51.814;4.510;2023-07-02T07:45:17;101091.44;;;16.97;88.05
11440;BME280;5776;51.814;4.510;2023-07-02T07:47:43;101091.13;;;16.98;90.71
11440;BME280;5776;51.814;4.510;2023-07-02T07:50:09;101089.97;;;16.99;90.67
11440;BME280;5776;51.814;4.510;2023-07-02T07:52:42;101092.41;;;17.01;89.55
11440;BME280;5776;51.814;4.510;2023-07-02T07:55:08;101094.00;;;17.02;90.08
11440;BME280;5776;51.814;4.510;2023-07-02T07:57:36;101086.25;;;17.04;90.55
11440;BME280;5776;51.814;4.510;2023-07-02T08:00:05;101086.41;;;17.08;90.92
11440;BME280;5776;51.814;4.510;2023-07-02T08:02:38;101094.31;;;17.09;90.66
11440;BME280;5776;51.814;4.510;2023-07-02T08:05:05;101091.88;;;17.08;88.67
11440;BME280;5776;51.814;4.510;2023-07-02T08:07:31;101093.66;;;17.12;88.78
11440;BME280;5776;51.814;4.510;2023-07-02T08:09:58;101100.13;;;17.16;88.61
11440;BME280;5776;51.814;4.510;2023-07-02T08:12:24;101097.03;;;17.18;89.09
11440;BME280;5776;51.814;4.510;2023-07-02T08:14:52;101090.75;;;17.17;88.67
11440;BME280;5776;51.814;4.510;2023-07-02T08:17:17;101106.25;;;17.22;88.31
11440;BME280;5776;51.814;4.510;2023-07-02T08:19:43;101109.47;;;17.24;89.63
11440;BME280;5776;51.814;4.510;2023-07-02T08:22:09;101107.22;;;17.26;88.99
11440;BME280;5776;51.814;4.510;2023-07-02T08:24:35;101115.25;;;17.31;89.83
11440;BME280;5776;51.814;4.510;2023-07-02T08:27:01;101108.97;;;17.31;89.49
11440;BME280;5776;51.814;4.510;2023-07-02T08:29:29;101100.75;;;17.31;87.92
11440;BME280;5776;51.814;4.510;2023-07-02T08:31:56;101104.28;;;17.31;87.58
11440;BME280;5776;51.814;4.510;2023-07-02T08:34:21;101103.13;;;17.32;86.58
11440;BME280;5776;51.814;4.510;2023-07-02T08:36:47;101105.88;;;17.32;84.86
11440;BME280;5776;51.814;4.510;2023-07-02T08:39:15;101106.84;;;17.36;85.47
11440;BME280;5776;51.814;4.510;2023-07-02T08:41:42;101111.84;;;17.34;82.95
11440;BME280;5776;51.814;4.510;2023-07-02T08:44:11;101110.88;;;17.39;83.52
11440;BME280;5776;51.814;4.510;2023-07-02T08:46:37;101117.97;;;17.40;81.94
11440;BME280;5776;51.814;4.510;2023-07-02T08:49:03;101120.88;;;17.43;83.19
11440;BME280;5776;51.814;4.510;2023-07-02T08:51:30;101125.91;;;17.41;81.58
11440;BME280;5776;51.814;4.510;2023-07-02T08:53:56;101122.00;;;17.42;82.39
11440;BME280;5776;51.814;4.510;2023-07-02T08:56:21;101133.66;;;17.48;82.00
11440;BME280;5776;51.814;4.510;2023-07-02T08:58:47;101138.00;;;17.49;82.19
11440;BME280;5776;51.814;4.510;2023-07-02T09:01:14;101129.75;;;17.49;81.45
11440;BME280;5776;51.814;4.510;2023-07-02T09:03:40;101131.03;;;17.52;79.88
11440;BME280;5776;51.814;4.510;2023-07-02T09:06:08;101132.31;;;17.54;82.40
11440;BME280;5776;51.814;4.510;2023-07-02T09:08:34;101129.25;;;17.56;79.08
11440;BME280;5776;51.814;4.510;2023-07-02T09:11:11;101134.88;;;17.59;80.60
11440;BME280;5776;51.814;4.510;2023-07-02T09:13:48;101125.97;;;17.62;80.21
11440;BME280;5776;51.814;4.510;2023-07-02T09:16:33;101123.72;;;17.64;80.35
11440;BME280;5776;51.814;4.510;2023-07-02T09:21:49;101142.16;;;17.64;78.96
11440;BME280;5776;51.814;4.510;2023-07-02T09:24:16;101128.91;;;17.66;80.15
11440;BME280;5776;51.814;4.510;2023-07-02T09:26:43;101133.56;;;17.65;80.75
11440;BME280;5776;51.814;4.510;2023-07-02T09:29:09;101128.53;;;17.67;80.66
11440;BME280;5776;51.814;4.510;2023-07-02T09:31:45;101128.72;;;17.71;82.82
11440;BME280;5776;51.814;4.510;2023-07-02T09:34:12;101133.38;;;17.70;80.58
11440;BME280;5776;51.814;4.510;2023-07-02T09:36:39;101135.50;;;17.74;78.77
11440;BME280;5776;51.814;4.510;2023-07-02T09:39:18;101134.03;;;17.76;79.14
11440;BME280;5776;51.814;4.510;2023-07-02T09:41:48;101131.28;;;17.76;78.38
11440;BME280;5776;51.814;4.510;2023-07-02T09:44:14;101133.69;;;17.78;78.57
11440;BME280;5776;51.814;4.510;2023-07-02T09:46:45;101134.81;;;17.77;79.27
11440;BME280;5776;51.814;4.510;2023-07-02T09:49:16;101131.75;;;17.78;78.07
11440;BME280;5776;51.814;4.510;2023-07-02T09:51:43;101141.59;;;17.79;76.85
11440;BME280;5776;51.814;4.510;2023-07-02T09:54:10;101140.28;;;17.85;78.90
11440;BME280;5776;51.814;4.510;2023-07-02T09:56:36;101137.56;;;17.85;78.54
11440;BME280;5776;51.814;4.510;2023-07-02T09:59:02;101148.88;;;17.84;75.41
11440;BME280;5776;51.814;4.510;2023-07-02T10:01:27;101152.13;;;17.86;78.77
11440;BME280;5776;51.814;4.510;2023-07-02T10:03:55;101139.50;;;17.85;77.48
11440;BME280;5776;51.814;4.510;2023-07-02T10:06:21;101144.81;;;17.90;76.21
11440;BME280;5776;51.814;4.510;2023-07-02T10:08:54;101155.59;;;17.95;77.10
11440;BME280;5776;51.814;4.510;2023-07-02T10:11:20;101156.41;;;17.96;75.45
11440;BME280;5776;51.814;4.510;2023-07-02T10:13:57;101155.13;;;17.93;76.36
11440;BME280;5776;51.814;4.510;2023-07-02T10:16:23;101148.66;;;17.98;76.55
11440;BME280;5776;51.814;4.510;2023-07-02T10:18:52;101154.63;;;18.00;76.67
11440;BME280;5776;51.814;4.510;2023-07-02T10:21:22;101157.38;;;18.00;76.61
11440;BME280;5776;51.814;4.510;2023-07-02T10:23:48;101158.53;;;17.99;76.11
11440;BME280;5776;51.814;4.510;2023-07-02T10:28:42;101162.69;;;18.05;76.26
11440;BME280;5776;51.814;4.510;2023-07-02T10:31:21;101158.16;;;18.09;76.46
11440;BME280;5776;51.814;4.510;2023-07-02T10:33:47;101166.22;;;18.14;77.76
11440;BME280;5776;51.814;4.510;2023-07-02T10:36:23;101176.41;;;18.13;76.27
11440;BME280;5776;51.814;4.510;2023-07-02T10:38:51;101170.56;;;18.15;76.15
11440;BME280;5776;51.814;4.510;2023-07-02T10:41:28;101155.16;;;18.23;78.71
11440;BME280;5776;51.814;4.510;2023-07-02T10:44:04;101172.00;;;18.21;74.86
11440;BME280;5776;51.814;4.510;2023-07-02T10:46:30;101159.66;;;18.27;76.52
11440;BME280;5776;51.814;4.510;2023-07-02T10:48:56;101163.22;;;18.28;78.62
11440;BME280;5776;51.814;4.510;2023-07-02T10:51:23;101169.34;;;18.33;79.90
11440;BME280;5776;51.814;4.510;2023-07-02T10:53:58;101167.53;;;18.38;80.98
11440;BME280;5776;51.814;4.510;2023-07-02T10:56:26;101172.69;;;18.39;79.34
11440;BME280;5776;51.814;4.510;2023-07-02T10:58:54;101171.91;;;18.39;77.14
11440;BME280;5776;51.814;4.510;2023-07-02T11:01:31;101165.84;;;18.45;80.69
11440;BME280;5776;51.814;4.510;2023-07-02T11:03:58;101167.47;;;18.46;79.88
11440;BME280;5776;51.814;4.510;2023-07-02T11:06:25;101167.13;;;18.48;79.86
11440;BME280;5776;51.814;4.510;2023-07-02T11:08:52;101174.25;;;18.49;78.70
11440;BME280;5776;51.814;4.510;2023-07-02T11:11:17;101180.69;;;18.53;80.04
11440;BME280;5776;51.814;4.510;2023-07-02T11:13:45;101171.44;;;18.57;80.84
11440;BME280;5776;51.814;4.510;2023-07-02T11:16:23;101174.97;;;18.58;77.02
11440;BME280;5776;51.814;4.510;2023-07-02T11:18:51;101179.38;;;18.59;78.75
11440;BME280;5776;51.814;4.510;2023-07-02T11:21:17;101174.66;;;18.60;79.64
11440;BME280;5776;51.814;4.510;2023-07-02T11:23:43;101184.19;;;18.62;76.57
11440;BME280;5776;51.814;4.510;2023-07-02T11:26:08;101179.00;;;18.61;75.25
11440;BME280;5776;51.814;4.510;2023-07-02T11:28:34;101182.13;;;18.59;73.70
11440;BME280;5776;51.814;4.510;2023-07-02T11:31:00;101184.66;;;18.64;77.03
11440;BME280;5776;51.814;4.510;2023-07-02T11:33:33;101189.03;;;18.65;77.14
11440;BME280;5776;51.814;4.510;2023-07-02T11:35:59;101181.56;;;18.66;76.09
11440;BME280;5776;51.814;4.510;2023-07-02T11:38:24;101183.03;;;18.63;74.64
11440;BME280;5776;51.814;4.510;2023-07-02T11:40:50;101183.88;;;18.64;75.72
11440;BME280;5776;51.814;4.510;2023-07-02T11:43:17;101183.03;;;18.63;73.71
11440;BME280;5776;51.814;4.510;2023-07-02T11:45:43;101185.94;;;18.67;76.80
11440;BME280;5776;51.814;4.510;2023-07-02T11:48:09;101184.31;;;18.66;74.98
11440;BME280;5776;51.814;4.510;2023-07-02T11:50:35;101177.69;;;18.67;75.67
11440;BME280;5776;51.814;4.510;2023-07-02T11:53:01;101184.00;;;18.67;77.07
11440;BME280;5776;51.814;4.510;2023-07-02T11:55:28;101189.50;;;18.67;72.80
11440;BME280;5776;51.814;4.510;2023-07-02T11:57:54;101188.69;;;18.67;74.05
11440;BME280;5776;51.814;4.510;2023-07-02T12:00:20;101189.97;;;18.69;77.30
11440;BME280;5776;51.814;4.510;2023-07-02T12:02:46;101185.59;;;18.68;75.97
11440;BME280;5776;51.814;4.510;2023-07-02T12:05:12;101192.25;;;18.67;77.06
11440;BME280;5776;51.814;4.510;2023-07-02T12:07:37;101186.53;;;18.72;79.18
11440;BME280;5776;51.814;4.510;2023-07-02T12:10:04;101194.78;;;18.72;79.25
11440;BME280;5776;51.814;4.510;2023-07-02T12:12:30;101198.34;;;18.73;76.06
11440;BME280;5776;51.814;4.510;2023-07-02T12:14:56;101211.78;;;18.74;76.99
11440;BME280;5776;51.814;4.510;2023-07-02T12:17:22;101205.63;;;18.77;77.25
11440;BME280;5776;51.814;4.510;2023-07-02T12:19:48;101197.06;;;18.79;77.78
11440;BME280;5776;51.814;4.510;2023-07-02T12:22:14;101205.44;;;18.83;77.35
11440;BME280;5776;51.814;4.510;2023-07-02T12:24:42;101201.88;;;18.82;75.83
11440;BME280;5776;51.814;4.510;2023-07-02T12:27:08;101202.69;;;18.83;77.01
11440;BME280;5776;51.814;4.510;2023-07-02T12:29:35;101202.69;;;18.83;76.43
11440;BME280;5776;51.814;4.510;2023-07-02T12:32:01;101197.19;;;18.83;77.80
11440;BME280;5776;51.814;4.510;2023-07-02T12:34:27;101194.91;;;18.85;78.78
11440;BME280;5776;51.814;4.510;2023-07-02T12:36:55;101196.97;;;18.88;78.70
11440;BME280;5776;51.814;4.510;2023-07-02T12:39:21;101203.28;;;18.88;76.82
11440;BME280;5776;51.814;4.510;2023-07-02T12:41:47;101212.38;;;18.89;76.39
11440;BME280;5776;51.814;4.510;2023-07-02T12:44:12;101210.41;;;18.89;77.69
11440;BME280;5776;51.814;4.510;2023-07-02T12:46:38;101209.63;;;18.89;76.19
11440;BME280;5776;51.814;4.510;2023-07-02T12:49:04;101212.38;;;18.89;75.68
11440;BME280;5776;51.814;4.510;2023-07-02T12:51:30;101211.53;;;18.88;77.03
11440;BME280;5776;51.814;4.510;2023-07-02T12:53:56;101220.16;;;18.87;74.40
11440;BME280;5776;51.814;4.510;2023-07-02T12:56:22;101214.97;;;18.85;74.35
11440;BME280;5776;51.814;4.510;2023-07-02T12:58:48;101215.44;;;18.87;76.62
11440;BME280;5776;51.814;4.510;2023-07-02T13:01:14;101217.72;;;18.85;73.69
11440;BME280;5776;51.814;4.510;2023-07-02T13:03:45;101221.28;;;18.86;75.71
11440;BME280;5776;51.814;4.510;2023-07-02T13:06:13;101221.28;;;18.86;72.92